Flight Track Log - Related Links

Times and Time Zones

All times are in EST time to prevent confusion due to time zone crossing. See the FLG3757 flight status page for this flight to view local times or setup timezone preferences in your user account.

Time Position Orientation Groundspeed Altitude Reporting Facility
EST Latitude Longitude Course Direction KTS MPH feet Rate Location/Type
Tue 06:05:14 AM 42.1781 -75.9672 269° West 159 183 3,100  Level New York Center
Tue 06:06:14 AM 42.1775 -76.0289 269° West 206 237 5,100 2,050 Climbing New York Center
Tue 06:07:14 AM 42.2161 -76.0992 307° West 225 259 7,200 2,500 Climbing New York Center
Tue 06:08:14 AM 42.2867 -76.1469 333° Northwest 240 276 10,100 2,000 Climbing New York Center
Tue 06:09:14 AM 42.3333 -76.2181 312° West 263 303 11,200 1,600 Climbing New York Center
Tue 06:10:14 AM 42.3764 -76.3253 299° West 300 345 13,300 1,850 Climbing New York Center
Tue 06:11:14 AM 42.4256 -76.4306 302° West 320 368 14,900 1,791 Climbing New York Center
Tue 06:13:25 AM 42.5386 -76.6725 302° West 352 405 19,000 1,281 Climbing Cleveland Center
Tue 06:14:26 AM 42.5619 -76.7986 284° West 348 400 19,000  Level Cleveland Center
Tue 06:15:27 AM 42.5897 -76.9342 286° West 369 425 19,000 545 Level Cleveland Center
Tue 06:16:27 AM 42.6200 -77.0747 286° West 384 442 20,100 1,339 Climbing Cleveland Center
Tue 06:17:28 AM 42.6519 -77.2328 285° West 370 426 21,700 1,426 Climbing Cleveland Center
Tue 06:18:29 AM 42.6786 -77.3619 286° West 361 415 23,000 1,279 Climbing Cleveland Center
Tue 06:19:30 AM 42.7044 -77.4889 286° West 355 409 24,300 1,131 Climbing Cleveland Center
Tue 06:20:31 AM 42.7283 -77.6106 285° West 344 396 25,300 942 Climbing Cleveland Center
Tue 06:21:31 AM 42.7528 -77.7286 286° West 335 386 26,200 843 Climbing Cleveland Center
Tue 06:22:32 AM 42.7769 -77.8475 286° West 332 382 27,000 738 Climbing Cleveland Center
Tue 06:23:33 AM 42.7997 -77.9664 285° West 327 376 27,700 492 Climbing Cleveland Center
Tue 06:24:34 AM 42.8228 -78.0844 285° West 325 374 28,000 148 Climbing Cleveland Center
Tue 06:25:35 AM 42.8503 -78.2333 284° West 340 391 28,000  Level Cleveland Center
Tue 06:26:36 AM 42.8753 -78.3617 285° West 351 404 28,000  Level Cleveland Center
Tue 06:27:37 AM 42.8997 -78.4931 284° West 358 412 28,000  Level Cleveland Center
Tue 06:28:38 AM 42.9258 -78.6253 285° West 362 417 28,000  Level Cleveland Center
Tue 06:29:39 AM 42.9136 -78.7483 262° West 324 373 28,000  Level Cleveland Center
Tue 06:30:39 AM 42.8967 -78.8694 259° West 325 374 28,000  Level Cleveland Center
Tue 06:31:40 AM 42.8800 -78.9914 259° West 328 377 28,000  Level Cleveland Center
Tue 06:32:41 AM 42.8619 -79.1133 259° West 327 376 28,000  Level Cleveland Center
Tue 06:33:42 AM 42.8433 -79.2342 258° West 328 377 28,000  Level Cleveland Center
Tue 06:34:43 AM 42.8261 -79.3572 259° West 329 379 28,000  Level Cleveland Center
Tue 06:35:44 AM 42.8072 -79.4803 258° West 332 382 28,000  Level Cleveland Center
Tue 06:36:45 AM 42.7886 -79.6031 258° West 334 384 28,000  Level Cleveland Center
Tue 06:37:46 AM 42.7661 -79.7500 258° West 333 383 28,000  Level Cleveland Center
Tue 06:38:47 AM 42.7492 -79.8758 260° West 338 389 28,000  Level Cleveland Center
Tue 06:39:48 AM 42.7450 -79.9936 267° West 350 403 28,000  Level Cleveland Center
Tue 06:40:49 AM 42.7397 -80.1292 267° West 354 407 28,000  Level Cleveland Center
Tue 06:41:51 AM 42.7333 -80.2636 266° West 353 406 28,000  Level Cleveland Center
Tue 06:42:52 AM 42.7281 -80.3969 267° West 351 404 28,000 -295 Level Cleveland Center
Tue 06:43:53 AM 42.7208 -80.5483 266° West 344 396 27,400 -787 Descending Cleveland Center
Tue 06:44:54 AM 42.7144 -80.6794 266° West 345 397 26,400 -984 Descending Cleveland Center
Tue 06:45:55 AM 42.7097 -80.8119 267° West 347 399 25,400 -984 Descending Cleveland Center
Tue 06:46:56 AM 42.6994 -80.9408 264° West 343 395 24,400 -689 Descending Cleveland Center
Tue 06:47:57 AM 42.6858 -81.0708 262° West 345 397 24,000 -197 Descending Cleveland Center
Tue 06:48:58 AM 42.6703 -81.1975 261° West 340 391 24,000  Level Cleveland Center
Tue 06:50:00 AM 42.6558 -81.3281 261° West 345 397 24,000  Level Cleveland Center
Tue 06:51:01 AM 42.6406 -81.4578 261° West 344 396 24,000  Level Cleveland Center
Tue 06:52:02 AM 42.6258 -81.5892 261° West 348 400 24,000 -393 Level Cleveland Center
Tue 06:53:03 AM 42.6106 -81.7200 261° West 349 402 23,200 -1,426 Descending Cleveland Center
Tue 06:54:04 AM 42.5942 -81.8508 260° West 353 406 21,100 -1,951 Descending Cleveland Center
Tue 06:55:06 AM 42.5786 -81.9756 260° West 340 391 19,200 -2,000 Descending Cleveland Center
Tue 06:56:07 AM 42.5625 -82.1028 260° West 343 395 17,000 -2,016 Descending Cleveland Center
Tue 06:57:08 AM 42.5469 -82.2292 261° West 343 395 15,100 -2,174 Descending Cleveland Center
Tue 06:57:16 AM 42.5422 -82.2622 259° West 334 384 14,500 -2,262 Descending Cleveland Center
Tue 06:58:09 AM 42.5300 -82.3742 262° West 330 380 12,800 -1,672 Descending Cleveland Center
Tue 06:58:17 AM 42.5275 -82.3850 253° West 327 376 12,800 -677 Level Cleveland Center
Tue 06:59:11 AM 42.5150 -82.4956 261° West 329 379 12,100 -689 Descending Cleveland Center
Tue 06:59:18 AM 42.5128 -82.5075 256° West 326 375 12,100 -393 Level Cleveland Center
Tue 07:00:12 AM 42.4864 -82.6069 250° West 319 367 11,700 -740 Descending Cleveland Center
Tue 07:00:31 AM 42.4761 -82.6386 246° West 286 329 11,200 -1,180 Descending Cleveland Center
Tue 07:01:13 AM 42.4533 -82.6997 243° Southwest 287 330 10,500 -1,082 Descending Cleveland Center
Tue 07:01:32 AM 42.4400 -82.7356 243° Southwest 265 305 10,100 -1,082 Descending Cleveland Center
Tue 07:02:14 AM 42.4356 -82.7886 264° West 252 290 9,400 -1,433 Descending Cleveland Center
Tue 07:02:39 AM 42.4308 -82.8333 262° West 240 276 8,500 -1,935 Descending Cleveland Center
Tue 07:03:16 AM 42.4258 -82.8808 262° West 246 283 7,400 -1,700 Descending Cleveland Center
Tue 07:03:39 AM 42.4219 -82.9256 263° West 247 284 6,800 -1,279 Descending Cleveland Center
Tue 07:04:17 AM 42.4172 -82.9703 262° West 244 281 6,100 -689 Descending Cleveland Center
Tue 07:04:40 AM 42.4131 -83.0147 263° West 238 274 6,100 -295 Level Cleveland Center
Tue 07:05:18 AM 42.4094 -83.0567 263° West 236 272 5,800 -984 Descending Cleveland Center
Tue 07:05:41 AM 42.4022 -83.1036 258° West 232 267 5,100 -871 Descending Cleveland Center
Tue 07:06:20 AM 42.3989 -83.1422 263° West 233 268 4,900 -896 Descending Cleveland Center
Tue 07:06:48 AM 42.3808 -83.1939 245° Southwest 213 245 4,100 -1,183 Descending Cleveland Center
Tue 07:07:31 AM 42.3569 -83.2331 230° Southwest 186 214 3,500 -638 Descending Cleveland Center
Tue 07:08:22 AM 42.3208 -83.2603 209° Southwest 190 219 3,100 -492 Descending Cleveland Center
Tue 07:08:32 AM 42.3122 -83.2664 208° Southwest 185 213 3,000 -968 Descending Cleveland Center
Tue 07:09:24 AM 42.2772 -83.2928 209° Southwest 184 212 2,100 -984 Descending Cleveland Center
Tue 07:09:33 AM 42.2703 -83.2972 205° Southwest 149 171 2,000 -787 Descending Cleveland Center
Tue 07:10:25 AM 42.2428 -83.3181 209° Southwest 156 180 1,300 -900 Descending Cleveland Center
Tue 07:10:33 AM 42.2347 -83.3233 206° Southwest 141 162 1,100 -290 Descending Cleveland Center
Tue 07:11:27 AM 42.2100 -83.3408 208° Southwest 150 173 1,000 -111 Descending Cleveland Center
Tue 07:13:00 AM 42.2000 -83.3500 246° West  Level FlightAware Approximate
Tue 07:20:00 AM 42.2124 -83.3534 246° West  Level Estimated

Login

Don't have an account? Register now (free) for customized features, flight alerts, and more!